Saint Libory, Nebraska
Current Conditions -  °F | °C
As of 11:53 PM on Wednesday 28 Jan 2015 (Local Time) from KGRI Reporting Station
Overcast Overcast  
Wind Chill: 30°   Ceiling: 2100
Heat Index: 41°   Visibility: 10mi
Dew Point: 32°   Wind: 31mph
Humidity: 70%   Direction: 330°NNW
Pressure: 30.1"   Gusts: 45mph
Location:  41.08°N, 98.36°W
Report Text: KGRI 290553Z AUTO 33027G39KT 10SM BKN021 OVC026 05/00 A3010 RMK AO2 PK WND 32043/0525 PRESRR SLP202 T00500000 10150 20050 402001044 53054
Loading
Personal Weather Stations






























Interactive Weather Map New forecast layout! Learn more

10-Day Weather Forecast

Advertisements
Track Severe Weather on mobile